หน้าหลัก
METAR-TAF:

METAR-TAF

ท่าอากาศยาน :

Eureka, นูนาวุต, แคนาดา

ละติจูด: 79-59N, ลองจิจูด: 085-56W, ความสูง: 10 ม.

การสังเกตสภาพอากาศปัจจุบัน

รายงานได้ทำขึ้นเมื่อ 55 นาทีที่แล้ว ณ เวลา 08:00 UTC
ลม 11 นอตจากเหนือโดยมีลมกระโชกได้ถึง19 นอต
อุณหภูมิ -27°C
ความชื้น 69%
ความกดอากาศ 1015 hPa
ทัศนวิสัย: 0.8 กม.
มีเมฆกระจายเป็นบางส่วนที่ความสูง 400 ฟุต
มีเมฆกระจายเป็นบางส่วนที่ความสูง 7000 ฟุต
หิมะฟุ้งปลิว

METAR: CWEU 200800Z 35011G19KT 1/2SM BLSN SCT004 SCT070 M27/M31 A2997 RMK SC3AC1 AC TR VIS VRB 1/8-1 1/2 SLP167

เวลา: 03:55 (08:55 UTC)


TAF: หายไป

สังเกตการณ์สภาพอากาศและพยากรณ์อากาศของสนามบินมากกว่า 4000 แห่ง (รายงาน METAR และ TAF).

สถานีที่ดูได้จะแสดงไว้ด้วยจุดสีเหลืองและสีแดงบนแผนที่.

เลื่อนเมาส์ไปเหนือจุดเพื่อดูชื่อสถานี.

แล้วคลิกเพื่อดูสังเกตการณ์และการพยากรณ์สภาพอากาศ.

ในการเปลี่ยนแผนที่: คลิกที่ปุ่มสีเขียวที่มีกากบาทสีดำเพื่อซูมเข้า; ที่ปุ่มสีเขียวที่มีขีดเพื่อซูมออก; หรือที่ลูกศรสีเขียวเพื่อไปยังแผนที่ที่อยู่ติดกัน.


METAR-TAF: